Time;durP1;ratioP1;P1;durP2;ratioP2;P2;SDS_P1;SDS_P2;PMS_P1;PMS_P2;Temp;Humidity;BMP_temperature;BMP_pressure;BME280_temperature;BME280_humidity;BME280_pressure;Samples;Min_cycle;Max_cycle;Signal;HPM_P1;HPM_P2
2023/05/17 00:00:31;;;;;;;54.77;32.10;;;;;;;16.45;100.00;99596.23;1490216;86;21521;-88
2023/05/17 00:02:58;;;;;;;42.20;24.27;;;;;;;16.43;100.00;99604.17;1486392;86;21324;-89
2023/05/17 00:05:24;;;;;;;30.90;16.33;;;;;;;16.40;100.00;99600.55;1491441;86;21331;-89
2023/05/17 00:07:50;;;;;;;22.57;9.67;;;;;;;16.40;100.00;99611.23;1493023;86;21322;-90
2023/05/17 00:10:16;;;;;;;20.97;6.30;;;;;;;16.38;100.00;99621.32;1490958;86;21300;-87
2023/05/17 00:12:43;;;;;;;19.07;7.20;;;;;;;16.42;100.00;99614.53;1490325;86;21412;-86
2023/05/17 00:15:09;;;;;;;19.67;7.43;;;;;;;16.46;100.00;99594.41;1488690;86;21596;-87
2023/05/17 00:17:36;;;;;;;31.33;7.00;;;;;;;16.42;100.00;99593.16;1489451;86;21265;-89
2023/05/17 00:20:04;;;;;;;18.90;6.60;;;;;;;16.43;100.00;99603.66;1492665;86;21330;-87
2023/05/17 00:22:31;;;;;;;21.37;6.33;;;;;;;16.49;100.00;99610.55;1492015;86;21352;-86
2023/05/17 00:24:57;;;;;;;20.83;6.13;;;;;;;16.50;100.00;99599.64;1489859;86;21372;-86
2023/05/17 00:27:23;;;;;;;21.57;6.23;;;;;;;16.43;100.00;99591.63;1483284;86;21397;-87
2023/05/17 00:29:49;;;;;;;15.67;7.27;;;;;;;16.39;100.00;99592.23;1472301;86;21446;-88
2023/05/17 00:32:15;;;;;;;19.97;6.63;;;;;;;16.42;100.00;99597.17;1480349;86;21442;-88
2023/05/17 00:34:41;;;;;;;21.73;7.60;;;;;;;16.40;100.00;99593.38;1482232;86;21372;-87
2023/05/17 00:37:07;;;;;;;24.27;7.23;;;;;;;16.41;100.00;99591.01;1486543;86;22327;-87
2023/05/17 00:39:33;;;;;;;23.03;6.83;;;;;;;16.40;100.00;99592.54;1469751;86;21452;-86
2023/05/17 00:42:00;;;;;;;14.10;5.53;;;;;;;16.36;100.00;99589.98;1487084;86;21447;-88
2023/05/17 00:44:26;;;;;;;20.10;6.80;;;;;;;16.34;100.00;99594.70;1486826;86;22886;-86
2023/05/17 00:46:52;;;;;;;24.40;7.27;;;;;;;16.35;100.00;99613.72;1489633;86;21428;-87
2023/05/17 00:49:19;;;;;;;13.37;6.03;;;;;;;16.34;100.00;99609.39;1484227;86;21383;-86
2023/05/17 00:51:45;;;;;;;20.43;6.87;;;;;;;16.33;100.00;99609.09;1487811;86;22415;-89
2023/05/17 00:54:13;;;;;;;24.07;8.27;;;;;;;16.33;100.00;99609.09;1486119;86;21308;-92
2023/05/17 00:56:39;;;;;;;12.57;5.37;;;;;;;16.36;100.00;99614.02;1489881;86;22240;-89
2023/05/17 00:59:06;;;;;;;17.33;5.90;;;;;;;16.38;100.00;99610.11;1482184;86;21453;-88
2023/05/17 01:01:35;;;;;;;25.93;7.23;;;;;;;16.42;100.00;99618.53;1491197;86;21452;-89
2023/05/17 01:04:01;;;;;;;22.43;8.27;;;;;;;16.44;100.00;99607.14;1471848;86;21514;-85
2023/05/17 01:06:28;;;;;;;15.27;6.97;;;;;;;16.38;100.00;99606.63;1494449;86;22437;-87
2023/05/17 01:08:54;;;;;;;18.23;5.73;;;;;;;16.34;100.00;99608.05;1489027;86;21492;-85
2023/05/17 01:11:47;;;;;;;13.20;5.47;;;;;;;16.31;100.00;99612.47;1488376;86;21507;-86
2023/05/17 01:14:59;;;;;;;18.20;6.50;;;;;;;16.29;100.00;99614.02;1482277;86;21317;-86
2023/05/17 01:17:57;;;;;;;18.70;7.00;;;;;;;16.30;100.00;99615.66;1483301;86;21364;-86
2023/05/17 01:20:35;;;;;;;29.70;6.73;;;;;;;16.31;100.00;99603.13;1487440;86;21629;-85
2023/05/17 01:23:27;;;;;;;24.43;7.73;;;;;;;16.31;100.00;99604.45;1483394;86;21573;-85
2023/05/17 01:25:59;;;;;;;24.20;6.67;;;;;;;16.26;100.00;99605.61;1484750;86;21401;-85
2023/05/17 01:28:28;;;;;;;13.07;5.17;;;;;;;16.19;100.00;99599.72;1484362;86;21417;-85
2023/05/17 01:30:56;;;;;;;15.40;5.00;;;;;;;16.12;100.00;99593.57;1474404;86;21367;-84
2023/05/17 01:33:23;;;;;;;21.50;6.80;;;;;;;16.10;100.00;99593.46;1484062;86;21331;-85
2023/05/17 01:35:49;;;;;;;26.37;6.33;;;;;;;16.08;100.00;99592.31;1484869;86;22603;-85
2023/05/17 01:38:15;;;;;;;10.87;5.10;;;;;;;16.05;100.00;99594.58;1486611;86;21432;-84
2023/05/17 01:41:06;;;;;;;18.57;6.00;;;;;;;16.03;100.00;99604.66;1489178;86;21420;-86
2023/05/17 01:43:38;;;;;;;20.07;6.07;;;;;;;16.01;100.00;99600.84;1484916;86;21445;-86
2023/05/17 01:46:25;;;;;;;17.43;7.03;;;;;;;16.04;100.00;99605.77;1482225;86;21521;-86
2023/05/17 01:49:00;;;;;;;14.07;5.03;;;;;;;16.07;100.00;99605.88;1490760;86;21342;-86
2023/05/17 01:51:30;;;;;;;17.47;5.30;;;;;;;16.07;100.00;99602.69;1487084;86;21397;-83
2023/05/17 01:54:10;;;;;;;17.90;6.80;;;;;;;16.09;100.00;99599.32;1493705;86;21391;-85
2023/05/17 01:56:35;;;;;;;19.70;6.57;;;;;;;16.08;100.00;99597.66;1489204;85;21501;-86
2023/05/17 01:59:05;;;;;;;22.77;6.47;;;;;;;16.06;100.00;99593.05;1471895;86;21396;-84
2023/05/17 02:01:33;;;;;;;17.37;4.77;;;;;;;16.03;100.00;99600.66;1472655;86;22422;-86
2023/05/17 02:03:59;;;;;;;17.57;5.37;;;;;;;16.02;100.00;99598.47;1489664;86;21867;-86
2023/05/17 02:06:25;;;;;;;17.13;5.20;;;;;;;16.00;100.00;99608.03;1480967;86;21388;-85
2023/05/17 02:08:52;;;;;;;13.17;5.57;;;;;;;15.99;100.00;99609.55;1484597;86;21461;-87
2023/05/17 02:11:19;;;;;;;16.53;5.07;;;;;;;15.97;100.00;99615.62;1481896;86;21467;-87
2023/05/17 02:13:45;;;;;;;13.40;6.33;;;;;;;15.95;100.00;99621.16;1464751;88;21429;-88
2023/05/17 02:16:11;;;;;;;20.90;7.47;;;;;;;15.99;100.00;99632.24;1484113;86;21561;-83
2023/05/17 02:18:39;;;;;;;13.53;5.83;;;;;;;15.99;100.00;99637.06;1466504;86;21422;-86
2023/05/17 02:21:05;;;;;;;17.57;6.17;;;;;;;15.94;100.00;99628.02;1468785;86;21337;-84
2023/05/17 02:23:31;;;;;;;17.37;7.37;;;;;;;15.90;100.00;99622.27;1475798;86;22124;-85
2023/05/17 02:25:57;;;;;;;12.03;4.87;;;;;;;15.89;100.00;99611.81;1472624;87;21379;-83
2023/05/17 02:28:23;;;;;;;25.53;7.43;;;;;;;15.86;100.00;99617.55;1486464;86;21435;-86
2023/05/17 02:30:52;;;;;;;30.43;8.63;;;;;;;15.82;100.00;99610.95;1467518;86;21424;-84
2023/05/17 02:33:18;;;;;;;23.43;7.07;;;;;;;15.78;100.00;99609.20;1479922;86;21477;-90
2023/05/17 02:35:44;;;;;;;14.47;6.87;;;;;;;15.77;100.00;99609.73;1485391;86;22387;-87
2023/05/17 02:38:10;;;;;;;20.37;6.70;;;;;;;15.79;100.00;99609.02;1471892;87;21578;-88
2023/05/17 02:40:36;;;;;;;19.00;5.97;;;;;;;15.78;100.00;99602.02;1463553;88;21449;-85
2023/05/17 02:43:03;;;;;;;25.47;6.63;;;;;;;15.77;100.00;99617.73;1476000;86;21391;-86
2023/05/17 02:45:30;;;;;;;15.00;6.50;;;;;;;15.81;100.00;99623.48;1484658;86;21904;-88
2023/05/17 02:47:56;;;;;;;14.73;6.53;;;;;;;15.83;100.00;99622.77;1488777;86;21375;-87
2023/05/17 02:50:24;;;;;;;21.77;7.47;;;;;;;15.87;100.00;99620.52;1494073;86;21324;-87
2023/05/17 02:52:50;;;;;;;17.13;6.90;;;;;;;15.87;100.00;99619.19;1487704;86;21367;-87
2023/05/17 02:55:16;;;;;;;12.70;6.20;;;;;;;15.88;100.00;99608.81;1468990;86;21353;-87
2023/05/17 02:57:43;;;;;;;16.47;6.27;;;;;;;15.90;100.00;99616.11;1493050;86;21545;-87
2023/05/17 03:00:09;;;;;;;15.63;6.97;;;;;;;15.90;100.00;99614.78;1470437;86;21270;-88
2023/05/17 03:02:36;;;;;;;16.27;6.03;;;;;;;15.90;100.00;99618.27;1491220;86;21490;-87
2023/05/17 03:05:03;;;;;;;14.93;6.00;;;;;;;15.92;100.00;99610.07;1474417;86;21454;-87
2023/05/17 03:07:29;;;;;;;14.50;5.10;;;;;;;15.93;100.00;99619.70;1485097;86;21406;-86
2023/05/17 03:09:55;;;;;;;16.70;6.30;;;;;;;15.93;100.00;99621.04;1492623;86;21366;-85
2023/05/17 03:12:22;;;;;;;22.00;6.40;;;;;;;15.94;100.00;99622.67;1490134;86;22356;-85
2023/05/17 03:14:48;;;;;;;17.50;7.00;;;;;;;15.92;100.00;99619.41;1490736;86;21441;-88
2023/05/17 03:17:14;;;;;;;15.87;5.70;;;;;;;15.93;100.00;99623.71;1490758;86;21294;-88
2023/05/17 03:19:40;;;;;;;17.23;5.60;;;;;;;15.92;100.00;99630.90;1471067;86;21558;-89
2023/05/17 03:22:07;;;;;;;18.10;6.20;;;;;;;15.95;100.00;99636.34;1489088;86;21324;-90
2023/05/17 03:24:44;;;;;;;16.90;4.60;;;;;;;15.96;100.00;99636.13;1471047;86;22380;-89
2023/05/17 03:27:10;;;;;;;15.03;5.97;;;;;;;15.99;100.00;99636.24;1489475;86;22468;-89
2023/05/17 03:29:36;;;;;;;17.80;6.87;;;;;;;15.99;100.00;99629.57;1489936;86;21897;-86
2023/05/17 03:32:03;;;;;;;13.27;5.53;;;;;;;15.97;100.00;99630.30;1484012;86;21515;-87
2023/05/17 03:34:30;;;;;;;16.90;6.67;;;;;;;15.96;100.00;99632.12;1489478;86;21550;-88
2023/05/17 03:36:56;;;;;;;16.47;6.40;;;;;;;15.99;100.00;99636.24;1483827;86;21396;-88
2023/05/17 03:39:22;;;;;;;23.60;6.60;;;;;;;15.99;100.00;99642.39;1483798;86;21323;-87
2023/05/17 03:41:48;;;;;;;32.73;8.03;;;;;;;16.01;100.00;99642.21;1491847;86;22673;-87
2023/05/17 03:44:14;;;;;;;21.00;6.70;;;;;;;16.01;100.00;99637.69;1483115;86;21338;-88
2023/05/17 03:46:40;;;;;;;24.87;6.70;;;;;;;16.04;100.00;99635.65;1499918;86;21580;-85
2023/05/17 03:49:06;;;;;;;15.87;6.17;;;;;;;16.08;100.00;99639.55;1475176;86;21560;-84
2023/05/17 03:51:33;;;;;;;16.53;6.40;;;;;;;16.11;100.00;99647.99;1456150;88;22424;-86
2023/05/17 03:54:00;;;;;;;26.53;6.93;;;;;;;16.13;100.00;99646.44;1460581;88;21401;-86
2023/05/17 03:56:26;;;;;;;13.87;6.50;;;;;;;16.16;100.00;99649.52;1454569;88;21335;-84
2023/05/17 03:58:53;;;;;;;17.87;6.67;;;;;;;16.20;100.00;99652.11;1447911;88;22524;-85
2023/05/17 04:01:19;;;;;;;16.00;6.13;;;;;;;16.28;100.00;99658.27;1450027;88;21355;-85
2023/05/17 04:03:46;;;;;;;15.67;5.80;;;;;;;16.30;100.00;99656.22;1434697;90;21833;-85
2023/05/17 04:06:13;;;;;;;19.13;6.67;;;;;;;16.30;100.00;99669.05;1426928;91;22468;-86
2023/05/17 04:08:40;;;;;;;19.87;5.63;;;;;;;16.30;100.00;99663.72;1427745;91;21518;-83
2023/05/17 04:11:11;;;;;;;18.57;6.50;;;;;;;16.31;100.00;99672.55;1416325;91;21599;-84
2023/05/17 04:13:39;;;;;;;22.20;6.23;;;;;;;16.34;100.00;99678.81;1430013;90;21494;-83
2023/05/17 04:16:09;;;;;;;20.10;6.17;;;;;;;16.32;100.00;99688.37;1417008;91;21496;-84
2023/05/17 04:18:36;;;;;;;19.90;6.10;;;;;;;16.36;100.00;99698.13;1432288;91;21472;-83
2023/05/17 04:21:04;;;;;;;16.37;6.93;;;;;;;16.37;100.00;99704.62;1414557;90;21399;-84
2023/05/17 04:23:32;;;;;;;30.60;7.00;;;;;;;16.40;100.00;99716.72;1431056;91;21576;-84
2023/05/17 04:25:58;;;;;;;29.03;6.20;;;;;;;16.40;100.00;99729.58;1432096;90;21428;-82
2023/05/17 04:28:25;;;;;;;29.13;6.73;;;;;;;16.42;100.00;99730.18;1431733;91;21347;-84
2023/05/17 04:30:52;;;;;;;19.17;6.10;;;;;;;16.43;100.00;99748.39;1415091;91;23131;-88
2023/05/17 04:33:18;;;;;;;24.53;8.87;;;;;;;16.47;100.00;99754.95;1432499;91;21362;-88
2023/05/17 04:35:45;;;;;;;23.67;6.27;;;;;;;16.49;100.00;99757.44;1433929;91;21413;-86
2023/05/17 04:38:12;;;;;;;17.73;6.40;;;;;;;16.46;100.00;99762.16;1434655;91;21528;-87
2023/05/17 04:40:38;;;;;;;25.73;7.80;;;;;;;16.48;100.00;99767.27;1435619;91;21422;-87
2023/05/17 04:43:05;;;;;;;20.10;6.53;;;;;;;16.49;100.00;99778.29;1433593;91;21451;-89
2023/05/17 04:45:32;;;;;;;21.60;7.60;;;;;;;16.50;100.00;99776.44;1416763;91;22522;-83
2023/05/17 04:47:58;;;;;;;13.40;5.60;;;;;;;16.51;100.00;99781.56;1393263;91;21407;-85
2023/05/17 04:50:27;;;;;;;27.57;7.57;;;;;;;16.50;100.00;99785.27;1432708;91;21549;-85
2023/05/17 04:52:53;;;;;;;24.70;7.37;;;;;;;16.51;100.00;99784.75;1455142;89;21309;-83
2023/05/17 04:55:20;;;;;;;29.97;6.77;;;;;;;16.50;100.00;99797.28;1459754;89;21397;-85
2023/05/17 04:57:46;;;;;;;22.40;6.40;;;;;;;16.51;100.00;99801.59;1400643;89;22387;-85
2023/05/17 05:00:14;;;;;;;22.70;6.23;;;;;;;16.49;100.00;99798.32;1462177;89;21361;-83
2023/05/17 05:02:41;;;;;;;24.70;5.90;;;;;;;16.47;100.00;99799.84;1457660;89;21360;-83
2023/05/17 05:05:11;;;;;;;16.83;5.23;;;;;;;16.47;100.00;99806.52;1459375;89;21592;-85
2023/05/17 05:07:38;;;;;;;16.82;5.87;;;;;;;16.43;100.00;99797.80;1457152;89;21404;-87
2023/05/17 05:10:06;;;;;;;17.97;6.33;;;;;;;16.42;100.00;99806.81;1462949;89;21374;-87
2023/05/17 05:12:32;;;;;;;26.30;6.53;;;;;;;16.40;100.00;99807.03;1457298;89;21405;-86
2023/05/17 05:14:58;;;;;;;22.13;6.27;;;;;;;16.38;100.00;99803.72;1458713;89;22451;-84
2023/05/17 05:17:24;;;;;;;17.30;5.63;;;;;;;16.37;100.00;99806.58;1460678;89;21642;-85
2023/05/17 05:19:51;;;;;;;22.23;4.63;;;;;;;16.37;100.00;99807.91;1458978;89;21397;-83
2023/05/17 05:22:18;;;;;;;13.90;5.40;;;;;;;16.35;100.00;99801.45;1461017;89;21367;-84
2023/05/17 05:24:44;;;;;;;22.93;5.80;;;;;;;16.32;100.00;99794.37;1460020;89;21426;-83
2023/05/17 05:27:10;;;;;;;18.53;5.63;;;;;;;16.31;100.00;99794.85;1456508;89;21375;-82
2023/05/17 05:29:36;;;;;;;18.87;5.03;;;;;;;16.29;100.00;99792.92;1460945;89;21557;-83
2023/05/17 05:32:02;;;;;;;15.47;5.17;;;;;;;16.28;100.00;99791.77;1444182;89;21345;-85
2023/05/17 05:34:30;;;;;;;11.77;5.30;;;;;;;16.28;100.00;99793.10;1457140;89;21390;-85
2023/05/17 05:36:57;;;;;;;13.67;4.97;;;;;;;16.29;100.00;99794.25;1461342;89;22226;-85
2023/05/17 05:39:23;;;;;;;18.60;6.50;;;;;;;16.29;100.00;99792.92;1458312;89;21548;-85
2023/05/17 05:41:50;;;;;;;15.40;5.30;;;;;;;16.30;100.00;99795.07;1456320;89;21397;-84
2023/05/17 05:44:17;;;;;;;12.40;4.93;;;;;;;16.30;100.00;99790.55;1463489;89;21493;-84
2023/05/17 05:46:48;;;;;;;13.17;4.07;;;;;;;16.28;100.00;99789.91;1457882;89;21530;-82
2023/05/17 05:49:14;;;;;;;17.47;5.60;;;;;;;16.29;100.00;99786.76;1438687;91;21438;-86
2023/05/17 05:51:40;;;;;;;12.13;5.00;;;;;;;16.32;100.00;99789.03;1433365;90;22473;-83
2023/05/17 05:54:07;;;;;;;35.57;6.77;;;;;;;16.31;100.00;99792.18;1416082;92;21465;-82
2023/05/17 05:56:33;;;;;;;11.53;3.93;;;;;;;16.33;100.00;99792.00;1436203;90;21400;-82
2023/05/17 05:58:59;;;;;;;14.67;5.10;;;;;;;16.36;100.00;99792.93;1449891;90;22497;-85
2023/05/17 06:01:26;;;;;;;12.30;5.10;;;;;;;16.36;100.00;99786.25;1445977;90;21532;-84
2023/05/17 06:03:52;;;;;;;12.57;4.37;;;;;;;16.38;100.00;99774.87;1448927;90;21294;-88
2023/05/17 06:06:18;;;;;;;11.77;5.07;;;;;;;16.39;100.00;99764.48;1451593;90;22263;-82
2023/05/17 06:08:46;;;;;;;17.93;4.50;;;;;;;16.44;100.00;99763.38;1449502;90;21828;-82
2023/05/17 06:11:13;;;;;;;12.10;4.90;;;;;;;16.50;100.00;99771.91;1451656;89;22329;-85
2023/05/17 06:13:39;;;;;;;12.37;4.77;;;;;;;16.58;100.00;99786.42;1449341;90;21419;-86
2023/05/17 06:16:07;;;;;;;14.87;5.23;;;;;;;16.66;100.00;99794.77;1450433;89;21472;-83
2023/05/17 06:18:34;;;;;;;15.20;4.90;;;;;;;16.73;100.00;99805.46;1450190;90;21546;-87
2023/05/17 06:21:00;;;;;;;10.93;4.67;;;;;;;16.75;100.00;99808.77;1451995;90;21412;-88
2023/05/17 06:23:26;;;;;;;9.40;4.33;;;;;;;16.79;100.00;99812.69;1414653;91;21825;-90
2023/05/17 06:25:53;;;;;;;15.97;5.03;;;;;;;16.84;100.00;99810.24;1425781;91;21378;-84
2023/05/17 06:28:19;;;;;;;8.23;4.30;;;;;;;16.91;100.00;99811.05;1424355;91;21371;-83
2023/05/17 06:30:45;;;;;;;13.40;5.53;;;;;;;17.00;100.00;99803.14;1427465;91;21379;-82
2023/05/17 06:33:12;;;;;;;17.00;4.97;;;;;;;17.08;100.00;99799.45;1406866;91;22333;-80
2023/05/17 06:35:38;;;;;;;10.88;5.80;;;;;;;17.16;100.00;99799.26;1354562;91;21297;-80
2023/05/17 06:38:04;;;;;;;13.20;4.37;;;;;;;17.25;100.00;99799.88;1355305;91;21262;-81
2023/05/17 06:40:30;;;;;;;16.45;5.70;;;;;;;17.37;100.00;99806.23;1340811;93;21276;-82
2023/05/17 06:42:56;;;;;;;12.58;4.92;;;;;;;17.44;100.00;99807.59;1355563;91;21468;-82
2023/05/17 06:45:23;;;;;;;15.08;5.20;;;;;;;17.45;100.00;99804.69;1355255;92;21516;-81
2023/05/17 06:47:49;;;;;;;9.95;4.10;;;;;;;17.42;100.00;99805.63;1376468;89;21356;-83
2023/05/17 06:50:15;;;;;;;10.85;4.05;;;;;;;17.43;100.00;99808.59;1382723;90;21543;-82
2023/05/17 06:52:41;;;;;;;9.73;3.60;;;;;;;17.44;100.00;99815.09;1528381;90;21309;-80
2023/05/17 06:55:08;;;;;;;10.00;4.10;;;;;;;17.43;100.00;99817.44;1376586;89;21243;-81
2023/05/17 06:57:36;;;;;;;12.63;4.42;;;;;;;17.45;100.00;99811.90;1375590;89;21348;-85
2023/05/17 07:00:05;;;;;;;11.12;4.60;;;;;;;17.39;100.00;99812.21;1375110;90;21473;-84
2023/05/17 07:02:31;;;;;;;18.50;6.05;;;;;;;17.37;100.00;99811.59;1373607;90;21480;-82
2023/05/17 07:04:57;;;;;;;10.65;5.42;;;;;;;17.37;100.00;99812.92;1375349;89;22197;-84
2023/05/17 07:07:23;;;;;;;12.70;4.85;;;;;;;17.36;100.00;99816.64;1376295;90;21325;-84
2023/05/17 07:09:50;;;;;;;13.40;5.05;;;;;;;17.37;100.00;99828.97;1376521;90;21339;-82
2023/05/17 07:12:16;;;;;;;12.40;4.55;;;;;;;17.40;100.00;99833.91;1376094;90;21221;-86
2023/05/17 07:14:42;;;;;;;13.72;4.35;;;;;;;17.41;100.00;99830.74;1379857;90;21303;-83
2023/05/17 07:17:10;;;;;;;14.38;6.28;;;;;;;17.41;100.00;99846.27;1372682;90;21413;-82
2023/05/17 07:19:36;;;;;;;10.93;4.65;;;;;;;17.42;100.00;99850.58;1374845;90;21370;-84
2023/05/17 07:22:03;;;;;;;11.00;5.70;;;;;;;17.44;100.00;99846.38;1376468;90;21310;-82
2023/05/17 07:24:29;;;;;;;10.85;5.00;;;;;;;17.41;100.00;99841.44;1464144;91;22369;-86
2023/05/17 07:26:55;;;;;;;13.65;5.28;;;;;;;17.42;100.00;99847.09;1375078;90;21221;-83
2023/05/17 07:29:22;;;;;;;9.93;5.85;;;;;;;17.47;100.00;99856.14;1380415;90;21354;-87
2023/05/17 07:31:48;;;;;;;13.53;6.53;;;;;;;17.51;100.00;99854.69;1466092;90;21508;-85
2023/05/17 07:34:14;;;;;;;14.93;6.05;;;;;;;17.51;100.00;99847.18;1447247;90;21523;-87
2023/05/17 07:36:40;;;;;;;20.02;6.47;;;;;;;17.49;100.00;99848.74;1451467;89;21368;-86
2023/05/17 07:39:08;;;;;;;8.93;4.75;;;;;;;17.57;100.00;99851.70;1455325;89;21577;-86
2023/05/17 07:41:34;;;;;;;18.40;6.12;;;;;;;17.67;100.00;99857.98;1464667;89;21448;-88
2023/05/17 07:44:01;;;;;;;18.85;5.55;;;;;;;17.73;100.00;99854.48;1456392;89;21672;-83
2023/05/17 07:46:27;;;;;;;11.28;4.78;;;;;;;17.80;100.00;99855.30;1454364;89;21870;-88
2023/05/17 07:48:53;;;;;;;10.78;5.22;;;;;;;17.92;100.00;99861.66;1461253;89;21353;-86
2023/05/17 07:51:20;;;;;;;12.03;6.37;;;;;;;18.00;100.00;99856.08;1462603;89;21470;-86
2023/05/17 07:53:46;;;;;;;15.32;6.15;;;;;;;18.09;100.00;99855.86;1457612;89;21382;-85
2023/05/17 07:56:12;;;;;;;11.10;4.55;;;;;;;18.13;100.00;99853.90;1461601;89;21553;-87
2023/05/17 07:58:38;;;;;;;12.65;4.10;;;;;;;18.08;100.00;99853.70;1452839;89;21420;-85
2023/05/17 08:01:05;;;;;;;8.23;4.08;;;;;;;18.10;100.00;99852.17;1453578;89;22495;-86
2023/05/17 08:03:31;;;;;;;8.60;4.60;;;;;;;18.11;100.00;99861.31;1462404;89;21368;-87
2023/05/17 08:05:57;;;;;;;11.65;4.25;;;;;;;18.09;100.00;99865.23;1466307;89;21478;-87
2023/05/17 08:08:23;;;;;;;13.35;4.22;;;;;;;18.04;100.00;99877.92;1443076;89;22336;-87
2023/05/17 08:10:49;;;;;;;18.48;5.45;;;;;;;17.96;100.00;99870.94;1459841;89;21496;-84
2023/05/17 08:13:15;;;;;;;16.45;4.28;;;;;;;17.91;100.00;99873.93;1461504;89;21367;-86
2023/05/17 08:15:41;;;;;;;12.07;4.42;;;;;;;17.82;100.00;99880.02;1445162;89;22270;-86
2023/05/17 08:18:08;;;;;;;11.10;4.97;;;;;;;17.72;100.00;99876.89;1460343;89;22624;-88
2023/05/17 08:20:35;;;;;;;12.55;4.55;;;;;;;17.56;100.00;99875.48;1462493;89;21337;-85
2023/05/17 08:23:01;;;;;;;11.60;4.72;;;;;;;17.49;100.00;99883.52;1460856;89;21426;-88
2023/05/17 08:25:27;;;;;;;12.15;5.25;;;;;;;17.43;100.00;99884.31;1458765;89;22402;-86
2023/05/17 08:27:53;;;;;;;18.70;5.95;;;;;;;17.42;100.00;99896.58;1456396;89;21374;-86
2023/05/17 08:30:19;;;;;;;16.93;5.85;;;;;;;17.39;100.00;99892.97;1454252;89;21401;-91
2023/05/17 08:32:46;;;;;;;15.98;4.15;;;;;;;17.34;100.00;99889.05;1456562;89;21560;-87
2023/05/17 08:35:13;;;;;;;15.28;5.42;;;;;;;17.30;100.00;99895.03;1437860;89;21390;-84
2023/05/17 08:37:39;;;;;;;16.95;5.10;;;;;;;17.27;100.00;99896.25;1460970;89;21640;-90
2023/05/17 08:40:06;;;;;;;13.53;5.75;;;;;;;17.28;100.00;99898.41;1458037;89;21353;-88
2023/05/17 08:42:33;;;;;;;12.95;5.90;;;;;;;17.26;100.00;99907.14;1461659;89;21330;-90
2023/05/17 08:45:00;;;;;;;10.60;4.92;;;;;;;17.23;100.00;99908.37;1459674;89;22306;-88
2023/05/17 08:47:30;;;;;;;13.93;6.47;;;;;;;17.20;100.00;99905.28;1462803;89;21279;-89
2023/05/17 08:50:10;;;;;;;17.80;7.25;;;;;;;17.16;100.00;99907.55;1466104;89;22291;-89
2023/05/17 08:52:31;;;;;;;14.47;4.92;;;;;;;17.16;100.00;99914.75;1446871;89;22506;-89
2023/05/17 08:55:02;;;;;;;13.08;4.87;;;;;;;17.15;100.00;99909.92;1455707;89;21406;-90
2023/05/17 08:57:32;;;;;;;7.47;2.83;;;;;;;17.11;100.00;99906.80;1453413;89;23049;-88
2023/05/17 09:00:05;;;;;;;9.23;4.10;;;;;;;17.12;100.00;99912.48;1453905;89;21301;-86
2023/05/17 09:02:31;;;;;;;6.50;3.00;;;;;;;17.13;100.00;99915.45;1451275;89;22395;-89
2023/05/17 09:05:00;;;;;;;11.45;3.40;;;;;;;17.18;100.00;99913.53;1459213;89;21603;-88
2023/05/17 09:07:27;;;;;;;9.03;4.50;;;;;;;17.21;100.00;99914.97;1459124;89;21360;-86
2023/05/17 09:09:54;;;;;;;18.17;9.95;;;;;;;17.24;100.00;99911.38;1441622;89;21428;-86
2023/05/17 09:12:22;;;;;;;11.85;6.53;;;;;;;17.26;100.00;99915.16;1456259;89;21530;-89
2023/05/17 09:14:49;;;;;;;7.37;5.60;;;;;;;17.26;100.00;99924.03;1456729;89;21442;-90
2023/05/17 09:17:20;;;;;;;13.32;4.42;;;;;;;17.28;100.00;99925.16;1459311;89;22506;-87
2023/05/17 09:19:49;;;;;;;8.70;3.55;;;;;;;17.27;100.00;99925.67;1455152;89;21368;-89
2023/05/17 09:22:21;;;;;;;9.53;4.47;;;;;;;17.25;100.00;99934.92;1448055;89;22325;-89
2023/05/17 09:24:48;;;;;;;10.80;4.50;;;;;;;17.22;100.00;99932.14;1455518;89;22871;-89
2023/05/17 09:27:17;;;;;;;9.58;3.95;;;;;;;17.16;100.00;99934.29;1437644;89;21489;-91
2023/05/17 09:29:45;;;;;;;7.92;4.12;;;;;;;17.11;100.00;99928.20;1453172;89;21434;-89
2023/05/17 09:32:15;;;;;;;10.43;3.98;;;;;;;17.12;100.00;99929.05;1456966;89;22546;-89
2023/05/17 09:34:44;;;;;;;8.75;4.17;;;;;;;17.14;100.00;99926.45;1459011;89;21516;-88
2023/05/17 09:37:16;;;;;;;11.33;4.33;;;;;;;17.20;100.00;99926.67;1452683;89;22240;-85
2023/05/17 09:39:45;;;;;;;11.83;4.72;;;;;;;17.24;100.00;99927.41;1457891;89;21428;-89
2023/05/17 09:42:13;;;;;;;10.72;3.85;;;;;;;17.26;100.00;99925.86;1462343;89;21361;-88
2023/05/17 09:44:53;;;;;;;13.25;4.53;;;;;;;17.27;100.00;99932.87;1461509;89;21574;-87
2023/05/17 09:47:27;;;;;;;7.12;3.85;;;;;;;17.29;100.00;99929.47;1454074;89;21419;-87
2023/05/17 09:50:01;;;;;;;10.25;4.62;;;;;;;17.33;100.00;99932.06;1456616;89;21534;-88
2023/05/17 09:52:34;;;;;;;9.78;3.85;;;;;;;17.34;100.00;99933.70;1453395;89;21597;-88
2023/05/17 09:55:01;;;;;;;7.50;3.50;;;;;;;17.32;100.00;99942.42;1435144;89;21539;-90
2023/05/17 09:57:30;;;;;;;10.93;3.92;;;;;;;17.32;100.00;99936.59;1461533;89;22314;-89
2023/05/17 09:59:57;;;;;;;7.33;3.70;;;;;;;17.30;100.00;99940.48;1452509;89;21500;-88
2023/05/17 10:02:30;;;;;;;9.18;3.52;;;;;;;17.26;100.00;99937.89;1461393;89;21404;-90
2023/05/17 10:04:57;;;;;;;9.98;3.95;;;;;;;17.25;100.00;99935.73;1454926;89;21464;-88
2023/05/17 10:07:26;;;;;;;10.98;3.60;;;;;;;17.26;100.00;99933.88;1450447;89;21574;-91
2023/05/17 10:09:54;;;;;;;9.68;3.35;;;;;;;17.29;100.00;99936.15;1449582;89;21390;-90
2023/05/17 10:12:22;;;;;;;7.85;4.42;;;;;;;17.31;100.00;99934.10;1458091;89;21459;-91
2023/05/17 10:14:54;;;;;;;10.38;3.75;;;;;;;17.33;100.00;99934.73;1453862;89;22329;-91
2023/05/17 10:17:20;;;;;;;11.35;3.72;;;;;;;17.37;100.00;99941.31;1437893;89;21455;-91
2023/05/17 10:19:48;;;;;;;14.78;4.20;;;;;;;17.44;100.00;99948.84;1453310;89;21383;-91
2023/05/17 10:22:15;;;;;;;11.33;4.17;;;;;;;17.46;100.00;99954.80;1439682;89;22370;-89
2023/05/17 10:24:43;;;;;;;14.47;5.12;;;;;;;17.47;100.00;99952.45;1452577;89;21442;-91
2023/05/17 10:27:10;;;;;;;8.43;4.17;;;;;;;17.46;100.00;99950.78;1449931;89;21457;-91
2023/05/17 10:29:39;;;;;;;7.25;3.22;;;;;;;17.45;100.00;99949.14;1453670;89;21324;-87
2023/05/17 10:32:07;;;;;;;11.97;3.52;;;;;;;17.49;100.00;99946.88;1463627;89;21368;-89
2023/05/17 10:34:35;;;;;;;7.03;3.52;;;;;;;17.50;100.00;99938.66;1460589;89;22285;-88
2023/05/17 10:37:03;;;;;;;10.40;3.02;;;;;;;17.52;100.00;99931.27;1449250;89;21523;-90
2023/05/17 10:39:37;;;;;;;6.03;3.30;;;;;;;17.62;100.00;99936.20;1459071;89;22454;-89
2023/05/17 10:42:07;;;;;;;6.90;2.37;;;;;;;17.83;100.00;99940.54;1452709;89;21627;-89
2023/05/17 10:44:36;;;;;;;6.62;2.65;;;;;;;18.10;100.00;99937.86;1451429;89;21404;-89
2023/05/17 10:47:03;;;;;;;8.97;2.73;;;;;;;18.39;100.00;99940.57;1457900;89;21309;-87
2023/05/17 10:49:32;;;;;;;9.85;2.85;;;;;;;18.70;100.00;99944.69;1453106;89;21398;-89
2023/05/17 10:52:13;;;;;;;9.20;3.45;;;;;;;18.96;100.00;99946.98;1455486;89;21435;-89
2023/05/17 10:54:43;;;;;;;6.42;2.45;;;;;;;19.19;100.00;99955.83;1452736;89;21330;-88
2023/05/17 10:57:34;;;;;;;6.37;2.83;;;;;;;19.38;100.00;99953.52;1451965;89;21412;-87
2023/05/17 11:00:05;;;;;;;6.62;2.90;;;;;;;19.55;100.00;99955.69;1458571;89;21353;-89
2023/05/17 11:02:31;;;;;;;9.80;3.35;;;;;;;19.60;100.00;99958.55;1452432;89;21547;-88
2023/05/17 11:04:59;;;;;;;7.30;3.65;;;;;;;19.58;100.00;99950.69;1450720;89;21804;-87
2023/05/17 11:07:30;;;;;;;9.20;3.15;;;;;;;19.63;100.00;99947.37;1451601;89;22121;-87
2023/05/17 11:10:11;;;;;;;14.40;4.37;;;;;;;19.74;100.00;99956.09;1456530;89;21338;-85
2023/05/17 11:12:46;;;;;;;9.73;4.40;;;;;;;19.83;100.00;99956.11;1452748;89;21360;-88
2023/05/17 11:15:16;;;;;;;9.65;3.50;;;;;;;19.93;100.00;99957.47;1455146;89;22329;-87
2023/05/17 11:17:52;;;;;;;15.78;2.83;;;;;;;20.10;100.00;99955.86;1452091;89;21382;-86
2023/05/17 11:20:27;;;;;;;8.48;3.65;;;;;;;20.18;100.00;99962.30;1454814;89;21643;-88
2023/05/17 11:23:06;;;;;;;13.53;3.92;;;;;;;20.31;100.00;99968.58;1459932;89;21330;-88